Latest Weather Observations for Coober Pedy Airport

IDS60801

Issued at 1:51 am CDT Tuesday 10 December 2019 (issued every 10 minutes, with the page automatically refreshed every 10 minutes)

About weather observations | Map of weather stations | Latest weather observations for SA | Other Formats
Station Details ID: 016090 Name: COOBER PEDY AIRPORT Lat: -29.03 Lon: 134.72 Height: 225.0 m
Data from the previous 72 hours. | See also: Recent months at Coober Pedy Airport
Date/Time
CDT
Temp
°C
App
Temp
°C
Dew
Point
°C
Rel
Hum
%
Delta-T
°C
Wind Press
QNH
hPa
Press
MSL
hPa
Rain since
9am
mm
Dir  Spd
km/h
Gust
km/h
Spd
kts
Gust
kts
10/01:30am 27.2 21.3 11.3 37 9.1 S 33 44 18 24 1015.7 1014.4 0.0
10/01:00am 28.1 21.1 11.2 35 9.7 S 39 46 21 25 1015.8 1014.5 0.0
10/12:30am 29.1 21.9 10.7 32 10.6 S 39 48 21 26 1015.8 1014.5 0.0
10/12:00am 30.3 23.9 10.8 30 11.3 S 35 44 19 24 1016.1 1014.8 0.0
 
Date/Time
CDT
Temp
°C
App
Temp
°C
Dew
Point
°C
Rel
Hum
%
Delta-T
°C
Wind Press
QNH
hPa
Press
MSL
hPa
Rain since
9am
mm
Dir  Spd
km/h
Gust
km/h
Spd
kts
Gust
kts
09/11:30pm 31.3 24.7 10.1 27 12.2 S 35 46 19 25 1015.9 1014.6 0.0
09/11:21pm 31.8 24.8 9.9 26 12.6 SSW 37 46 20 25 1016.1 1014.8 0.0
09/11:00pm 33.1 27.1 7.1 20 14.4 SSE 28 35 15 19 1014.9 1013.5 0.0
09/10:30pm 33.3 28.3 6.6 19 14.7 S 22 28 12 15 1015.5 1014.2 0.0
09/10:00pm 33.8 29.1 6.2 18 15.1 S 20 24 11 13 1015.4 1014.1 0.0
09/09:30pm 34.1 28.7 6.4 18 15.2 S 24 28 13 15 1015.2 1013.9 0.0
09/09:00pm 34.5 29.0 5.9 17 15.6 S 24 30 13 16 1015.0 1013.7 0.0
09/08:30pm 34.7 28.5 6.1 17 15.7 S 28 33 15 18 1014.8 1013.4 0.0
09/08:00pm 35.1 28.8 5.5 16 16.1 S 28 33 15 18 1014.5 1013.1 0.0
09/07:30pm 35.4 29.3 4.8 15 16.5 S 26 30 14 16 1014.2 1012.8 0.0
09/07:00pm 35.7 30.2 4.1 14 16.9 S 22 30 12 16 1013.9 1012.5 0.0
09/06:30pm 36.2 29.7 4.5 14 17.1 SSE 28 39 15 21 1013.7 1012.3 0.0
09/06:00pm 36.1 30.3 4.4 14 17.1 S 24 33 13 18 1013.7 1012.3 0.0
09/05:30pm 36.5 30.4 4.7 14 17.2 SSE 26 37 14 20 1013.6 1012.2 0.0
09/05:00pm 36.2 30.6 5.5 15 16.8 SE 24 35 13 19 1013.7 1012.3 0.0
09/04:30pm 35.5 28.3 5.8 16 16.3 S 33 41 18 22 1013.9 1012.5 0.0
09/04:00pm 37.0 29.7 7.0 16 16.9 S 35 46 19 25 1013.9 1012.5 0.0
09/03:33pm 36.5 30.0 6.6 16 16.7 S 30 48 16 26 1014.1 1012.7 0.0
09/03:30pm 36.3 29.4 6.5 16 16.6 S 32 48 17 26 1014.1 1012.7 0.0
09/03:00pm 36.6 29.4 5.8 15 17.0 SSE 33 50 18 27 1014.4 1013.0 0.0
09/02:34pm 36.7 30.3 6.8 16 16.7 S 30 48 16 26 1014.7 1013.3 0.0
09/02:30pm 36.4 28.8 5.6 15 16.9 S 35 48 19 26 1014.7 1013.3 0.0
09/02:18pm 36.7 30.3 6.8 16 16.7 S 30 50 16 27 1014.7 1013.3 0.0
09/02:00pm 36.1 28.8 5.4 15 16.8 S 33 48 18 26 1015.0 1013.7 0.0
09/01:33pm 36.2 29.7 6.4 16 16.6 S 30 48 16 26 1015.3 1014.0 0.0
09/01:30pm 35.1 27.8 5.5 16 16.1 S 33 48 18 26 1015.4 1014.1 0.0
09/01:00pm 35.3 27.7 7.4 18 15.7 SSW 37 46 20 25 1015.7 1014.4 0.0
09/12:39pm 34.6 27.4 7.6 19 15.2 SSW 35 48 19 26 1015.7 1014.4 0.0
09/12:30pm 34.4 26.8 7.5 19 15.1 S 37 46 20 25 1015.9 1014.6 0.0
09/12:19pm 34.9 27.6 7.1 18 15.5 SSW 35 48 19 26 1016.1 1014.8 0.0
09/12:00pm 34.2 27.3 8.8 21 14.5 S 35 46 19 25 1016.1 1014.8 0.0
09/11:30am 32.2 24.6 9.1 24 13.1 SSW 39 48 21 26 1016.4 1015.1 0.0
09/11:00am 32.0 23.7 9.5 25 12.9 SSW 43 52 23 28 1016.4 1015.1 0.0
09/10:30am 30.0 21.6 9.5 28 11.6 SSW 44 54 24 29 1016.3 1015.0 0.0
09/10:00am 28.4 19.7 10.1 32 10.4 SSW 46 56 25 30 1016.4 1015.1 0.0
09/09:30am 28.3 20.1 10.5 33 10.1 SSW 44 52 24 28 1016.4 1015.1 0.0
09/09:00am 28.3 20.6 8.6 29 10.9 SSW 39 50 21 27 1016.3 1015.0 0.0
09/08:30am 29.5 21.9 7.4 25 12.0 SSW 37 43 20 23 1015.5 1014.2 0.0
09/08:00am 29.9 24.0 5.9 22 12.8 SSW 26 33 14 18 1015.4 1014.1 0.0
09/07:30am 28.8 23.6 5.6 23 12.2 SSW 22 26 12 14 1014.7 1013.3 0.0
09/07:00am 28.6 23.0 5.5 23 12.1 SSW 24 32 13 17 1014.2 1012.8 0.0
09/06:30am 28.1 24.0 4.4 22 12.2 S 15 17 8 9 1013.5 1012.1 0.0
09/06:00am 28.5 24.1 4.7 22 12.3 SSE 17 20 9 11 1012.9 1011.5 0.0
09/05:30am 28.1 23.7 5.0 23 12.0 SSE 17 20 9 11 1012.2 1010.9 0.0
09/05:00am 27.6 23.7 5.2 24 11.6 SE 15 19 8 10 1012.0 1010.7 0.0
09/04:30am 28.2 23.9 5.1 23 12.0 SE 17 19 9 10 1011.8 1010.5 0.0
09/04:00am 28.9 24.2 5.1 22 12.4 SE 19 24 10 13 1011.8 1010.5 0.0
09/03:30am 29.0 24.2 5.8 23 12.3 SE 20 28 11 15 1011.5 1010.2 0.0
09/03:00am 29.3 24.5 5.4 22 12.6 SE 20 26 11 14 1011.8 1010.5 0.0
09/02:30am 29.8 23.5 5.8 22 12.8 SE 28 37 15 20 1011.6 1010.3 0.0
09/02:00am 30.3 24.0 5.6 21 13.1 SE 28 35 15 19 1012.1 1010.8 0.0
09/01:30am 30.6 25.1 5.8 21 13.3 SE 24 35 13 19 1012.3 1011.0 0.0
09/01:00am 31.1 24.9 6.2 21 13.4 SSE 28 33 15 18 1012.9 1011.5 0.0
09/12:30am 31.7 25.8 6.0 20 13.9 SSE 26 33 14 18 1013.2 1011.8 0.0
09/12:00am 32.2 25.1 6.4 20 14.0 SSE 33 41 18 22 1013.0 1011.6 0.0
 
Date/Time
CDT
Temp
°C
App
Temp
°C
Dew
Point
°C
Rel
Hum
%
Delta-T
°C
Wind Press
QNH
hPa
Press
MSL
hPa
Rain since
9am
mm
Dir  Spd
km/h
Gust
km/h
Spd
kts
Gust
kts
08/11:30pm 32.6 24.3 6.0 19 14.4 SSE 39 52 21 28 1013.1 1011.7 0.0
08/11:00pm 33.1 23.9 5.6 18 14.8 S 43 54 23 29 1012.9 1011.5 0.0
08/10:30pm 33.5 23.8 5.9 18 15.0 S 46 59 25 32 1012.9 1011.5 0.0
08/10:12pm 33.8 23.3 5.4 17 15.3 S 50 63 27 34 1012.5 1011.2 0.0
08/10:00pm 33.9 23.0 5.4 17 15.4 S 52 63 28 34 1012.1 1010.8 0.0
08/09:30pm 34.6 22.5 4.2 15 16.2 S 57 70 31 38 1011.3 1010.0 0.0
08/09:00pm 35.4 24.2 3.9 14 16.8 SSW 52 65 28 35 1010.7 1009.3 0.0
08/08:54pm 35.5 23.3 3.9 14 16.8 SSW 57 72 31 39 1010.4 1009.0 0.0
08/08:33pm 36.2 21.7 3.4 13 17.4 SSW 69 87 37 47 1009.5 1008.1 0.0
08/08:30pm 36.4 22.7 3.6 13 17.5 SSW 65 87 35 47 1008.6 1007.2 0.0
08/08:29pm 36.6 23.6 3.7 13 17.6 SSW 61 87 33 47 1008.5 1007.1 0.0
08/08:24pm 36.9 27.4 4.0 13 17.7 SSW 43 82 23 44 1008.8 1007.4 0.0
08/08:22pm 36.9 29.5 4.0 13 17.7 SW 32 67 17 36 1008.9 1007.5 0.0
08/08:20pm 37.0 31.1 4.0 13 17.7 SSW 24 50 13 27 1009.4 1008.0 0.0
08/08:17pm 37.5 32.8 3.3 12 18.2 NE 17 48 9 26 1009.3 1007.9 0.0
08/08:00pm 39.5 33.6 -2.6 7 20.7 NE 19 22 10 12 1007.8 1006.5 0.0
08/07:30pm 41.2 34.6 -3.5 6 22.0 NNE 22 28 12 15 1007.6 1006.3 0.0
08/07:00pm 41.9 36.3 -3.0 6 22.3 NNE 17 28 9 15 1007.5 1006.2 0.0
08/06:30pm 42.7 37.5 -2.4 6 22.8 NNE 15 22 8 12 1007.6 1006.3 0.0
08/06:00pm 42.9 37.0 -2.3 6 22.9 N 19 28 10 15 1007.7 1006.4 0.0
08/05:30pm 43.3 37.2 -2.0 6 23.1 N 20 32 11 17 1007.9 1006.6 0.0
08/05:00pm 42.6 37.4 -2.5 6 22.7 NNW 15 24 8 13 1008.3 1006.9 0.0
08/04:30pm 42.6 37.4 -2.5 6 22.7 N 15 26 8 14 1008.6 1007.2 0.0
08/04:00pm 43.2 37.1 -2.1 6 23.0 NNW 20 33 11 18 1008.9 1007.5 0.0
08/03:30pm 42.7 36.6 -2.4 6 22.8 NW 20 39 11 21 1009.4 1008.0 0.0
08/03:08pm 43.1 35.5 -2.2 6 22.9 N 28 46 15 25 1009.6 1008.2 0.0
08/03:00pm 42.3 35.4 -2.7 6 22.6 NNW 24 37 13 20 1009.8 1008.4 0.0
08/02:30pm 42.1 34.4 -2.9 6 22.5 N 28 41 15 22 1010.1 1008.7 0.0
08/02:05pm 42.2 34.5 -2.8 6 22.5 N 28 46 15 25 1010.6 1009.2 0.0
08/02:00pm 41.8 34.8 -3.1 6 22.3 N 24 43 13 23 1010.6 1009.2 0.0
08/01:45pm 41.0 33.5 -1.6 7 21.5 N 28 46 15 25 1010.8 1009.4 0.0
08/01:30pm 41.8 33.6 -1.0 7 21.9 NNE 32 44 17 24 1010.9 1009.5 0.0
08/01:00pm 40.7 31.8 -1.8 7 21.3 NNE 35 44 19 24 1011.3 1010.0 0.0
08/12:30pm 40.0 30.7 -2.3 7 21.0 NNE 37 48 20 26 1011.6 1010.3 0.0
08/12:00pm 38.3 28.8 -3.5 7 20.2 NNE 37 46 20 25 1011.9 1010.6 0.0
08/11:30am 37.6 27.7 -4.0 7 19.8 NNE 39 48 21 26 1012.2 1010.9 0.0
08/11:00am 36.8 26.7 -2.8 8 19.1 NNE 41 52 22 28 1012.3 1011.0 0.0
08/10:30am 36.1 25.3 -3.3 8 18.8 NNE 44 56 24 30 1012.6 1011.3 0.0
08/10:00am 34.1 23.5 -3.2 9 17.6 NNE 43 57 23 31 1012.5 1011.2 0.0
08/09:30am 31.4 22.3 -3.8 10 16.1 NNE 35 46 19 25 1012.8 1011.4 0.0
08/09:00am 30.0 20.5 -3.6 11 15.2 NNE 37 46 20 25 1012.5 1011.2 0.0
08/08:30am 28.3 19.2 -3.8 12 14.3 NNE 35 44 19 24 1012.6 1011.3 0.0
08/08:00am 26.5 18.7 -4.1 13 13.4 NNE 28 32 15 17 1012.4 1011.1 0.0
08/07:30am 25.3 18.1 -5.1 13 12.9 NE 24 32 13 17 1012.1 1010.8 0.0
08/07:00am 24.5 17.0 -4.7 14 12.4 NNE 26 30 14 16 1012.0 1010.7 0.0
08/06:30am 23.9 16.7 -5.2 14 12.2 NNE 24 28 13 15 1011.5 1010.2 0.0
08/06:00am 23.5 17.0 -5.5 14 12.0 NNE 20 24 11 13 1011.4 1010.1 0.0
08/05:30am 23.6 17.1 -6.4 13 12.2 NE 20 24 11 13 1011.0 1009.7 0.0
08/05:00am 24.8 17.2 -5.5 13 12.7 NE 26 30 14 16 1010.8 1009.4 0.0
08/04:30am 25.4 18.5 -6.0 12 13.1 NE 22 28 12 15 1010.7 1009.3 0.0
08/04:00am 26.0 18.8 -5.6 12 13.4 NE 24 28 13 15 1010.6 1009.2 0.0
08/03:30am 26.3 18.7 -5.3 12 13.5 NE 26 32 14 17 1010.6 1009.2 0.0
08/03:00am 27.4 19.0 -5.6 11 14.1 ENE 30 35 16 19 1010.6 1009.2 0.0
08/02:30am 27.1 20.0 -4.7 12 13.8 NE 24 28 13 15 1011.0 1009.7 0.0
08/02:00am 27.9 20.1 -4.1 12 14.1 ENE 28 35 15 19 1011.3 1010.0 0.0
08/01:30am 28.3 20.5 -3.8 12 14.3 NE 28 35 15 19 1011.5 1010.2 0.0
08/01:00am 29.0 20.9 -3.2 12 14.6 ENE 30 37 16 20 1011.8 1010.5 0.0
08/12:30am 29.7 21.7 -2.7 12 14.9 ENE 30 37 16 20 1012.0 1010.7 0.0
08/12:00am 30.8 22.3 -3.0 11 15.6 ENE 32 41 17 22 1012.0 1010.7 0.0
 
Date/Time
CDT
Temp
°C
App
Temp
°C
Dew
Point
°C
Rel
Hum
%
Delta-T
°C
Wind Press
QNH
hPa
Press
MSL
hPa
Rain since
9am
mm
Dir  Spd
km/h
Gust
km/h
Spd
kts
Gust
kts
07/11:30pm 31.6 23.6 -2.4 11 15.9 ENE 30 41 16 22 1012.0 1010.7 0.0
07/11:00pm 32.3 25.1 -1.9 11 16.2 E 26 32 14 17 1011.9 1010.6 0.0
07/10:30pm 33.0 26.3 -1.4 11 16.6 E 24 30 13 16 1011.6 1010.3 0.0
07/10:00pm 33.6 27.9 -0.9 11 16.8 E 19 24 10 13 1011.3 1010.0 0.0
07/09:30pm 34.6 28.2 -1.4 10 17.5 E 22 26 12 14 1011.1 1009.8 0.0
07/09:00pm 35.7 29.8 -0.6 10 18.0 E 20 26 11 14 1010.8 1009.4 0.0
07/08:30pm 37.1 31.2 -2.6 8 19.3 E 19 20 10 11 1010.3 1008.9 0.0
07/08:00pm 38.3 33.2 -1.7 8 19.8 E 15 20 8 11 1010.0 1008.6 0.0
07/07:30pm 39.1 35.3 -1.1 8 20.2 ENE 9 20 5 11 1009.8 1008.4 0.0
07/07:00pm 39.5 35.3 -0.8 8 20.4 ENE 11 26 6 14 1009.4 1008.0 0.0
07/06:30pm 39.5 35.7 -0.8 8 20.4 ESE 9 15 5 8 1009.4 1008.0 0.0
07/06:00pm 39.3 35.8 -1.0 8 20.4 SW 7 17 4 9 1009.3 1007.9 0.0
07/05:30pm 39.7 36.3 -0.7 8 20.5 W 7 19 4 10 1009.5 1008.1 0.0
07/05:00pm 39.8 36.4 -0.6 8 20.6 E 7 15 4 8 1009.9 1008.5 0.0
07/04:30pm 39.3 33.9 -1.0 8 20.3 NNE 17 32 9 17 1010.2 1008.8 0.0
07/04:00pm 39.0 33.6 -1.2 8 20.2 N 17 28 9 15 1010.7 1009.3 0.0
07/03:30pm 38.7 34.1 -1.4 8 20.0 NNW 13 26 7 14 1011.0 1009.7 0.0
07/03:00pm 38.3 34.2 -0.1 9 19.5 W 11 26 6 14 1011.4 1010.1 0.0
07/02:30pm 37.7 33.2 -0.6 9 19.3 NNE 13 24 7 13 1011.8 1010.5 0.0
07/02:00pm 37.1 32.7 0.4 10 18.7 ENE 13 22 7 12 1012.2 1010.9 0.0
07/01:30pm 37.3 32.6 0.6 10 18.7 NE 15 24 8 13 1012.6 1011.3 0.0
07/01:00pm 36.3 30.7 1.2 11 18.0 ENE 20 28 11 15 1013.3 1011.9 0.0
07/12:30pm 35.0 28.9 0.2 11 17.4 NNE 22 32 12 17 1013.7 1012.3 0.0
07/12:00pm 34.3 27.7 -0.4 11 17.1 NE 24 32 13 17 1014.1 1012.7 0.0
07/11:30am 33.4 26.7 -1.0 11 16.7 NE 24 35 13 19 1014.6 1013.2 0.0
07/11:00am 31.7 25.4 -1.2 12 15.7 ENE 22 30 12 16 1014.9 1013.5 0.0
07/10:30am 31.4 24.7 -1.4 12 15.6 NE 24 33 13 18 1015.2 1013.9 0.0
07/10:00am 30.2 23.5 -1.2 13 14.9 NE 24 33 13 18 1015.3 1014.0 0.0
07/09:30am 28.6 21.8 -1.5 14 14.0 ENE 24 32 13 17 1015.6 1014.3 0.0
07/09:00am 26.9 20.1 -1.9 15 13.1 ENE 24 30 13 16 1015.5 1014.2 0.0
07/08:30am 25.8 19.5 -1.1 17 12.3 ENE 22 30 12 16 1015.3 1014.0 0.0
07/08:00am 24.5 18.0 -2.1 17 11.9 E 22 26 12 14 1015.1 1013.8 0.0
07/07:30am 23.2 17.1 -2.4 18 11.2 E 20 24 11 13 1014.8 1013.4 0.0
07/07:00am 21.9 16.3 -2.7 19 10.6 E 17 19 9 10 1014.7 1013.3 0.0
07/06:30am 21.3 15.7 -3.2 19 10.4 E 17 20 9 11 1014.4 1013.0 0.0
07/06:00am 22.0 16.0 -3.4 18 10.8 E 19 22 10 12 1013.9 1012.5 0.0
07/05:30am 22.5 16.9 -3.0 18 11.0 E 17 20 9 11 1013.9 1012.5 0.0
07/05:00am 23.2 17.2 -3.2 17 11.4 E 19 22 10 12 1013.8 1012.4 0.0
07/04:30am 23.8 17.6 -3.5 16 11.8 ESE 20 24 11 13 1013.5 1012.1 0.0
07/04:00am 24.5 17.7 -4.7 14 12.4 ESE 22 26 12 14 1013.2 1011.8 0.0
07/03:30am 24.8 18.6 -4.5 14 12.5 ESE 19 20 10 11 1013.0 1011.6 0.0
07/03:00am 24.8 19.4 -4.5 14 12.5 ESE 15 17 8 9 1013.0 1011.6 0.0
07/02:30am 25.8 19.5 -3.7 14 12.9 ESE 20 24 11 13 1013.1 1011.7 0.0
07/02:00am 26.4 20.3 -2.3 15 12.9 SE 20 24 11 13 1013.3 1011.9 0.0

Other formats

Comma delimited format used in spreadsheet applications
http://www.bom.gov.au/fwo/IDS60801/IDS60801.95458.axf

JavaScript Object Notation format (JSON) in row-major order
http://www.bom.gov.au/fwo/IDS60801/IDS60801.95458.json

Data quality

Most of these data are generated automatically and are frequently updated. Quality checks on data are not normally performed. It is possible for incorrect values to appear. Refer to information at About Latest Weather Observations and please check the disclaimer before using these data.